Time;durP1;ratioP1;P1;durP2;ratioP2;P2;SDS_P1;SDS_P2;PMS_P1;PMS_P2;Temp;Humidity;BMP_temperature;BMP_pressure;BME280_temperature;BME280_humidity;BME280_pressure;Samples;Min_cycle;Max_cycle;Signal;HPM_P1;HPM_P2
2021/03/02 00:01:34;;;;;;;31.70;13.95;;;;;;;7.66;55.09;103172.53;4979821;28;96539;-81
2021/03/02 00:04:04;;;;;;;29.20;14.63;;;;;;;7.79;54.93;103171.84;4976505;28;97690;-78
2021/03/02 00:06:30;;;;;;;30.95;14.38;;;;;;;7.60;55.15;103174.22;4978548;28;97984;-80
2021/03/02 00:08:57;;;;;;;;;;;;;;;7.31;55.94;103182.50;4978787;28;96456;-80
2021/03/02 00:11:24;;;;;;;34.20;13.85;;;;;;;7.46;55.54;103174.84;4975063;28;96884;-82
2021/03/02 00:13:50;;;;;;;29.67;13.48;;;;;;;7.28;55.82;103180.72;4974372;28;98081;-82
2021/03/02 00:16:21;;;;;;;;;;;;;;;7.11;56.05;103171.63;4966405;28;96923;-82
2021/03/02 00:18:51;;;;;;;28.85;13.63;;;;;;;7.06;56.04;103175.94;4965525;28;97056;-82
2021/03/02 00:21:21;;;;;;;32.58;14.15;;;;;;;7.20;55.64;103175.31;4968789;28;98915;-82
2021/03/02 00:23:53;;;;;;;27.98;13.55;;;;;;;7.42;55.49;103171.28;4951760;28;99077;-82
2021/03/02 00:26:23;;;;;;;29.60;12.82;;;;;;;7.36;55.31;103168.56;4965929;28;96652;-83
2021/03/02 00:28:50;;;;;;;28.70;14.35;;;;;;;7.19;55.60;103170.91;4957831;28;97142;-82
2021/03/02 00:31:17;;;;;;;27.60;13.52;;;;;;;7.19;55.33;103180.56;4953096;28;97793;-81
2021/03/02 00:33:46;;;;;;;28.52;13.43;;;;;;;7.53;54.49;103168.84;4963793;28;98887;-82
2021/03/02 00:36:12;;;;;;;36.13;13.50;;;;;;;7.89;53.58;103176.38;4969780;28;97772;-83
2021/03/02 00:38:39;;;;;;;29.70;13.82;;;;;;;7.74;53.87;103177.06;4975271;28;96677;-81
2021/03/02 00:41:06;;;;;;;31.83;14.45;;;;;;;8.08;52.81;103181.03;4973327;28;97959;-82
2021/03/02 00:43:32;;;;;;;32.35;14.57;;;;;;;7.97;53.45;103175.63;4977471;28;97575;-82
2021/03/02 00:45:58;;;;;;;;;;;;;;;7.57;54.27;103183.78;4979241;28;97680;-81
2021/03/02 00:48:24;;;;;;;31.15;13.27;;;;;;;7.77;53.71;103176.19;4982165;28;96569;-82
2021/03/02 00:50:50;;;;;;;32.92;16.17;;;;;;;7.75;54.01;103184.06;4979175;28;97741;-81
2021/03/02 00:53:16;;;;;;;;;;;;;;;7.70;54.30;103169.97;4970635;28;97822;-82
2021/03/02 00:55:42;;;;;;;30.90;13.88;;;;;;;7.59;54.35;103182.09;4974481;28;96160;-80
2021/03/02 00:58:08;;;;;;;32.30;13.48;;;;;;;7.59;54.58;103174.19;4975114;28;95968;-81
2021/03/02 01:00:34;;;;;;;;;;;;;;;7.48;54.29;103176.63;4971028;28;97548;-82
2021/03/02 01:03:01;;;;;;;26.23;13.23;;;;;;;7.24;55.35;103176.25;4978756;28;97925;-81
2021/03/02 01:05:27;;;;;;;26.10;13.68;;;;;;;7.25;55.30;103179.75;4968731;28;96795;-82
2021/03/02 01:07:53;;;;;;;28.63;13.90;;;;;;;7.39;54.80;103179.13;4954825;28;96986;-81
2021/03/02 01:10:19;;;;;;;;;;;;;;;7.37;55.17;103183.47;4958568;28;97812;-82
2021/03/02 01:12:46;;;;;;;31.45;14.25;;;;;;;7.45;55.04;103173.97;4954470;28;98973;-81
2021/03/02 01:15:12;;;;;;;29.50;13.48;;;;;;;7.74;53.90;103165.66;4959898;28;97011;-82
2021/03/02 01:17:39;;;;;;;27.70;13.13;;;;;;;7.25;55.23;103163.97;4957786;28;97705;-82
2021/03/02 01:20:06;;;;;;;28.45;14.10;;;;;;;7.17;54.94;103162.09;4961553;28;98131;-82
2021/03/02 01:22:32;;;;;;;29.67;14.30;;;;;;;7.01;55.57;103160.09;4956542;28;99136;-81
2021/03/02 01:24:58;;;;;;;;;;;;;;;7.08;55.48;103155.81;4956119;28;96653;-81
2021/03/02 01:27:24;;;;;;;28.98;13.50;;;;;;;7.22;55.02;103160.44;4953395;28;96798;-80
2021/03/02 01:29:50;;;;;;;;;;;;;;;7.00;55.41;103155.69;4958118;28;98935;-81
2021/03/02 01:32:16;;;;;;;29.27;13.88;;;;;;;7.00;55.05;103152.19;4962591;28;98974;-81
2021/03/02 01:34:42;;;;;;;31.75;13.88;;;;;;;6.66;55.86;103151.56;4962881;28;96960;-83
2021/03/02 01:37:08;;;;;;;28.48;13.68;;;;;;;6.45;56.88;103145.91;4961706;28;96715;-81
2021/03/02 01:39:34;;;;;;;28.55;14.52;;;;;;;6.59;56.43;103154.94;4974101;28;97852;-80
2021/03/02 01:42:00;;;;;;;33.38;14.80;;;;;;;6.53;56.39;103149.56;4974881;28;97829;-81
2021/03/02 01:44:28;;;;;;;29.10;13.57;;;;;;;6.93;55.28;103151.19;4977846;28;98536;-81
2021/03/02 01:46:56;;;;;;;28.52;14.43;;;;;;;6.87;55.35;103148.44;4976743;28;96834;-82
2021/03/02 01:49:22;;;;;;;31.90;14.32;;;;;;;6.86;55.39;103151.94;4974826;28;97821;-82
2021/03/02 01:51:48;;;;;;;27.27;13.85;;;;;;;6.99;55.30;103145.16;4973162;28;99212;-82
2021/03/02 01:54:16;;;;;;;33.85;15.25;;;;;;;6.75;55.36;103148.22;4974043;28;96911;-81
2021/03/02 01:56:42;;;;;;;27.75;13.25;;;;;;;6.79;55.56;103152.69;4973035;28;96579;-82
2021/03/02 01:59:08;;;;;;;30.55;14.30;;;;;;;6.57;56.38;103151.38;4962674;28;98511;-82
2021/03/02 02:01:35;;;;;;;30.27;14.38;;;;;;;6.42;56.79;103143.22;4973722;28;98058;-83
2021/03/02 02:04:07;;;;;;;30.13;14.05;;;;;;;6.57;56.43;103148.75;4977549;28;96536;-82
2021/03/02 02:06:40;;;;;;;26.75;14.40;;;;;;;6.55;55.89;103142.59;4974855;28;96862;-83
2021/03/02 02:09:12;;;;;;;32.28;14.70;;;;;;;6.38;56.71;103151.88;4972654;28;98095;-83
2021/03/02 02:11:47;;;;;;;28.40;13.45;;;;;;;6.37;56.40;103144.84;4967829;28;97746;-83
2021/03/02 02:14:22;;;;;;;27.20;13.75;;;;;;;6.67;55.94;103148.09;4960899;28;96727;-82
2021/03/02 02:16:52;;;;;;;30.80;14.05;;;;;;;6.63;55.53;103145.38;4964151;28;96950;-82
2021/03/02 02:19:33;;;;;;;38.13;15.02;;;;;;;6.64;55.62;103142.75;4968613;28;97779;-83
2021/03/02 02:22:11;;;;;;;31.50;13.57;;;;;;;6.41;56.43;103144.06;4966464;28;98925;-82
2021/03/02 02:24:48;;;;;;;34.10;14.40;;;;;;;6.61;55.24;103142.72;4963758;28;96781;-82
2021/03/02 02:27:16;;;;;;;32.50;14.00;;;;;;;6.76;55.28;103142.97;4962102;28;98345;-81
2021/03/02 02:29:42;;;;;;;31.10;14.32;;;;;;;6.90;55.25;103145.84;4954350;28;98150;-83
2021/03/02 02:32:10;;;;;;;29.45;14.40;;;;;;;6.51;56.05;103135.50;4963886;28;97696;-85
2021/03/02 02:34:37;;;;;;;34.35;15.32;;;;;;;6.38;56.29;103142.25;4961474;28;96967;-84
2021/03/02 02:37:04;;;;;;;28.08;14.75;;;;;;;6.50;55.53;103143.38;4968692;28;96921;-82
2021/03/02 02:39:33;;;;;;;28.60;13.38;;;;;;;6.23;56.14;103141.09;4958444;28;97994;-81
2021/03/02 02:42:00;;;;;;;30.30;13.73;;;;;;;6.10;56.72;103136.44;4962419;28;99212;-82
2021/03/02 02:44:27;;;;;;;30.55;13.55;;;;;;;6.16;56.91;103136.56;4945423;28;96815;-82
2021/03/02 02:46:57;;;;;;;30.13;14.68;;;;;;;6.13;56.69;103129.50;4957329;28;96899;-81
2021/03/02 02:49:25;;;;;;;27.95;13.57;;;;;;;6.04;56.77;103136.31;4967520;28;99268;-81
2021/03/02 02:51:52;;;;;;;34.85;14.15;;;;;;;6.35;56.03;103138.72;4967243;28;97813;-81
2021/03/02 02:54:19;;;;;;;30.02;13.25;;;;;;;6.19;56.47;103140.13;4961251;28;96684;-82
2021/03/02 02:56:46;;;;;;;33.00;14.55;;;;;;;5.91;57.49;103140.38;4968369;28;97665;-81
2021/03/02 02:59:18;;;;;;;30.88;13.63;;;;;;;5.83;57.79;103147.19;4969694;28;97616;-82
2021/03/02 03:01:47;;;;;;;30.10;14.25;;;;;;;5.96;57.53;103149.28;4964031;28;98003;-82
2021/03/02 03:04:16;;;;;;;28.60;14.20;;;;;;;5.99;57.25;103149.31;4971605;28;96119;-81
2021/03/02 03:06:45;;;;;;;28.75;14.00;;;;;;;6.04;56.93;103138.94;4952169;28;96771;-83
2021/03/02 03:09:12;;;;;;;25.92;13.68;;;;;;;5.98;56.92;103148.44;4975008;28;97795;-82
2021/03/02 03:11:42;;;;;;;32.78;14.65;;;;;;;5.98;57.00;103142.28;4959640;28;97823;-82
2021/03/02 03:14:11;;;;;;;29.58;13.75;;;;;;;6.12;56.93;103139.97;4961577;28;97309;-83
2021/03/02 03:16:39;;;;;;;32.13;14.75;;;;;;;6.27;56.38;103138.53;4973423;28;98682;-81
2021/03/02 03:19:08;;;;;;;33.65;14.25;;;;;;;6.11;56.78;103138.19;4976185;28;98819;-81
2021/03/02 03:21:36;;;;;;;32.17;13.70;;;;;;;6.13;57.11;103133.88;4973972;28;97774;-82
2021/03/02 03:24:03;;;;;;;28.13;14.50;;;;;;;6.14;56.67;103133.91;4960051;28;96896;-82
2021/03/02 03:26:33;;;;;;;30.70;14.70;;;;;;;5.92;57.06;103134.28;4958868;28;96814;-82
2021/03/02 03:29:01;;;;;;;34.50;14.32;;;;;;;5.99;56.82;103137.09;4953709;28;99117;-83
2021/03/02 03:31:27;;;;;;;29.60;13.70;;;;;;;6.04;56.94;103136.31;4949127;28;99127;-83
2021/03/02 03:33:54;;;;;;;30.02;13.90;;;;;;;5.99;57.17;103142.34;4961552;28;97147;-82
2021/03/02 03:36:21;;;;;;;29.85;13.98;;;;;;;6.02;56.98;103138.91;4959654;28;97895;-83
2021/03/02 03:38:47;;;;;;;32.25;14.52;;;;;;;6.06;56.64;103131.97;4955355;28;99270;-82
2021/03/02 03:41:14;;;;;;;32.30;13.45;;;;;;;6.03;56.80;103145.03;4959444;28;100387;-82
2021/03/02 03:43:40;;;;;;;30.05;15.00;;;;;;;6.38;56.31;103139.63;4956686;28;96938;-82
2021/03/02 03:46:06;;;;;;;;;;;;;;;6.45;55.74;103145.91;4958484;28;96783;-83
2021/03/02 03:48:32;;;;;;;26.88;13.40;;;;;;;6.62;55.17;103141.88;4958421;28;99265;-83
2021/03/02 03:50:58;;;;;;;38.83;17.15;;;;;;;6.65;54.78;103141.03;4961462;28;98931;-83
2021/03/02 03:53:30;;;;;;;34.78;14.23;;;;;;;6.49;55.37;103142.50;4958131;28;96809;-84
2021/03/02 03:55:58;;;;;;;31.58;14.35;;;;;;;6.43;55.52;103133.59;4959107;28;97379;-83
2021/03/02 03:58:26;;;;;;;30.02;14.73;;;;;;;6.40;55.65;103143.19;4952290;28;97894;-83
2021/03/02 04:00:53;;;;;;;32.45;14.32;;;;;;;6.65;55.12;103144.53;4960228;28;98940;-82
2021/03/02 04:03:20;;;;;;;26.25;13.35;;;;;;;6.47;55.37;103138.06;4958384;28;96760;-83
2021/03/02 04:05:48;;;;;;;31.83;14.60;;;;;;;6.44;55.67;103136.25;4959563;28;96897;-83
2021/03/02 04:08:15;;;;;;;32.65;15.20;;;;;;;6.55;54.90;103139.97;4953572;28;99323;-82
2021/03/02 04:10:42;;;;;;;33.03;15.13;;;;;;;6.52;55.03;103134.66;4962115;28;101046;-83
2021/03/02 04:13:10;;;;;;;33.40;14.13;;;;;;;6.25;55.93;103142.88;4944489;28;98092;-82
2021/03/02 04:15:37;;;;;;;27.05;13.60;;;;;;;6.73;54.54;103139.44;4960243;28;96880;-83
2021/03/02 04:18:03;;;;;;;28.23;13.38;;;;;;;6.20;55.84;103135.75;4956885;28;99266;-82
2021/03/02 04:20:32;;;;;;;32.05;15.88;;;;;;;6.16;56.09;103131.31;4959307;28;97691;-83
2021/03/02 04:22:58;;;;;;;31.50;13.43;;;;;;;6.30;55.74;103138.59;4957668;28;97761;-85
2021/03/02 04:25:24;;;;;;;;;;;;;;;6.27;55.53;103137.66;4955885;28;96744;-80
2021/03/02 04:27:51;;;;;;;31.80;13.70;;;;;;;6.16;56.30;103139.19;4957001;28;98809;-80
2021/03/02 04:30:17;;;;;;;32.53;15.07;;;;;;;6.52;55.32;103142.53;4958451;28;98862;-82
2021/03/02 04:32:43;;;;;;;28.77;13.38;;;;;;;6.34;56.16;103147.44;4948952;28;96764;-81
2021/03/02 04:35:11;;;;;;;;;;;;;;;6.26;55.54;103142.03;4957607;28;97095;-83
2021/03/02 04:37:37;;;;;;;37.88;15.15;;;;;;;6.31;55.50;103148.25;4960944;28;98908;-83
2021/03/02 04:40:05;;;;;;;26.75;13.18;;;;;;;6.35;55.23;103149.22;4955930;28;98896;-82
2021/03/02 04:42:31;;;;;;;31.48;14.57;;;;;;;6.33;55.62;103141.28;4961236;28;97772;-82
2021/03/02 04:44:58;;;;;;;;;;;;;;;5.93;56.50;103146.56;4956168;28;96834;-82
2021/03/02 04:47:24;;;;;;;29.55;13.25;;;;;;;6.47;55.07;103138.06;4953747;28;98955;-82
2021/03/02 04:49:50;;;;;;;23.20;12.00;;;;;;;6.18;56.09;103142.72;4960160;28;98949;-81
2021/03/02 04:52:16;;;;;;;28.65;13.30;;;;;;;5.94;56.30;103141.34;4958339;28;98561;-82
2021/03/02 04:54:42;;;;;;;19.63;11.57;;;;;;;5.96;56.14;103142.28;4957759;28;97022;-83
2021/03/02 04:57:08;;;;;;;;;;;;;;;5.85;56.56;103135.88;4961870;28;98394;-82
2021/03/02 04:59:34;;;;;;;25.42;12.48;;;;;;;5.64;57.71;103140.66;4963411;28;98951;-83
2021/03/02 05:02:01;;;;;;;26.20;12.38;;;;;;;6.15;56.08;103138.31;4958796;28;96680;-83
2021/03/02 05:04:27;;;;;;;25.92;12.15;;;;;;;5.92;55.95;103137.81;4963008;28;97393;-82
2021/03/02 05:06:53;;;;;;;;;;;;;;;6.17;55.68;103141.81;4948679;28;98842;-82
2021/03/02 05:09:18;;;;;;;28.70;12.98;;;;;;;6.16;55.56;103131.31;4956302;28;100784;-82
2021/03/02 05:11:44;;;;;;;;;;;;;;;5.98;55.63;103137.94;4957023;28;96651;-82
2021/03/02 05:14:10;;;;;;;27.33;12.57;;;;;;;5.83;56.57;103134.09;4957330;28;98021;-81
2021/03/02 05:16:37;;;;;;;23.55;11.77;;;;;;;5.93;56.04;103136.06;4951901;28;98875;-82
2021/03/02 05:19:04;;;;;;;24.50;12.00;;;;;;;5.84;56.06;103138.47;4957628;28;98881;-82
2021/03/02 05:21:29;;;;;;;21.33;10.77;;;;;;;5.86;55.81;103140.25;4960332;28;96700;-83
2021/03/02 05:23:55;;;;;;;;;;;;;;;6.04;55.39;103136.31;4960869;28;97242;-81
2021/03/02 05:26:21;;;;;;;23.55;11.23;;;;;;;5.91;56.09;103143.91;4960735;28;98854;-81
2021/03/02 05:28:47;;;;;;;;;;;;;;;5.72;56.17;103139.06;4954139;28;98942;-81
2021/03/02 05:31:13;;;;;;;21.13;10.52;;;;;;;6.03;55.68;103139.78;4957725;28;96905;-83
2021/03/02 05:33:39;;;;;;;;;;;;;;;5.71;56.28;103137.28;4959008;28;96884;-81
2021/03/02 05:36:06;;;;;;;23.98;10.80;;;;;;;5.55;56.46;103148.31;4948556;28;98997;-81
2021/03/02 05:38:32;;;;;;;21.20;10.65;;;;;;;5.91;55.19;103143.91;4958263;28;98935;-81
2021/03/02 05:40:58;;;;;;;;;;;;;;;6.12;54.53;103142.59;4958825;28;96721;-82
2021/03/02 05:43:24;;;;;;;20.98;10.90;;;;;;;5.94;54.87;103141.34;4957428;28;97419;-81
2021/03/02 05:45:50;;;;;;;19.38;10.32;;;;;;;5.86;54.96;103147.25;4961817;28;100718;-81
2021/03/02 05:48:17;;;;;;;21.10;9.98;;;;;;;5.95;54.48;103147.50;4956218;28;99484;-81
2021/03/02 05:50:43;;;;;;;32.65;17.08;;;;;;;5.66;55.71;103144.19;4965793;28;96537;-81
2021/03/02 05:53:10;;;;;;;;;;;;;;;5.49;55.66;103140.28;4970813;28;97282;-80
2021/03/02 05:55:37;;;;;;;20.40;10.02;;;;;;;5.68;55.76;103144.22;4964942;28;98182;-81
2021/03/02 05:58:04;;;;;;;20.52;11.23;;;;;;;5.72;55.15;103148.69;4960560;28;97744;-81
2021/03/02 06:00:31;;;;;;;22.15;10.45;;;;;;;5.55;55.48;103148.31;4965991;28;96677;-81
2021/03/02 06:02:57;;;;;;;22.70;11.43;;;;;;;5.58;55.40;103150.97;4973399;28;96751;-81
2021/03/02 06:05:23;;;;;;;22.20;9.82;;;;;;;5.63;55.80;103153.72;4956304;28;97923;-82
2021/03/02 06:07:49;;;;;;;22.55;10.35;;;;;;;5.60;55.27;103150.19;4970112;28;96851;-81
2021/03/02 06:10:58;;;;;;;21.40;11.40;;;;;;;5.54;55.35;103147.41;4973164;28;96753;-81
2021/03/02 06:14:22;;;;;;;22.73;11.23;;;;;;;5.49;55.66;103153.41;4967511;28;96938;-82
2021/03/02 06:16:51;;;;;;;31.98;14.35;;;;;;;5.49;55.67;103158.66;4970123;28;96698;-82
2021/03/02 06:19:47;;;;;;;32.63;15.32;;;;;;;5.38;56.70;103161.00;4969036;28;97736;-82
2021/03/02 06:25:47;;;;;;;21.45;9.80;;;;;;;5.47;55.93;103161.22;4881496;28;98664;-82
2021/03/02 06:28:47;;;;;;;23.02;9.57;;;;;;;5.46;55.84;103163.81;4885128;28;99072;-84
2021/03/02 06:31:40;;;;;;;22.70;9.25;;;;;;;5.78;55.20;103162.81;4960268;28;97309;-84
2021/03/02 06:34:17;;;;;;;17.08;9.50;;;;;;;5.41;55.63;103170.69;4972752;28;96636;-83
2021/03/02 06:37:08;;;;;;;21.15;9.98;;;;;;;5.52;55.71;103163.94;4969015;28;96648;-83
2021/03/02 06:39:42;;;;;;;18.30;9.13;;;;;;;6.20;53.75;103164.66;4970476;28;98052;-84
2021/03/02 06:42:17;;;;;;;23.13;10.88;;;;;;;5.96;54.28;103165.03;4978113;28;96981;-85
2021/03/02 06:44:45;;;;;;;18.93;9.97;;;;;;;6.17;53.81;103170.69;4966300;28;96534;-82
2021/03/02 06:47:13;;;;;;;18.23;10.40;;;;;;;6.37;53.40;103179.00;4950795;28;96772;-83
2021/03/02 06:49:42;;;;;;;21.05;9.63;;;;;;;6.31;53.52;103169.25;4971483;28;97960;-83
2021/03/02 06:52:12;;;;;;;22.23;9.23;;;;;;;6.73;52.56;103166.59;4961748;28;99332;-83
2021/03/02 06:54:38;;;;;;;18.88;10.23;;;;;;;6.59;52.42;103169.81;4940230;28;96845;-83
2021/03/02 06:57:04;;;;;;;;;;;;;;;6.73;52.31;103171.84;4955868;28;96826;-82
2021/03/02 06:59:31;;;;;;;16.02;9.20;;;;;;;6.52;52.14;103173.16;4953014;28;98028;-81
2021/03/02 07:01:56;;;;;;;22.42;10.70;;;;;;;6.74;52.02;103173.63;4953714;28;101071;-82
2021/03/02 07:04:23;;;;;;;;;;;;;;;6.82;51.40;103168.50;4953373;28;96827;-81
2021/03/02 07:06:54;;;;;;;19.23;9.73;;;;;;;7.06;50.93;103168.06;4952850;28;96834;-82
2021/03/02 07:09:20;;;;;;;22.05;9.90;;;;;;;7.18;50.72;103170.88;4955446;28;99410;-82
2021/03/02 07:11:45;;;;;;;;;;;;;;;7.12;50.61;103169.03;4958171;28;96773;-82
2021/03/02 07:14:13;;;;;;;21.40;9.75;;;;;;;7.09;50.72;103165.47;4951233;28;97530;-82
2021/03/02 07:16:42;;;;;;;31.10;11.48;;;;;;;7.19;51.33;103165.66;4955870;28;96851;-81
2021/03/02 07:19:13;;;;;;;25.80;10.95;;;;;;;7.37;51.17;103172.97;4953246;28;99206;-81
2021/03/02 07:21:39;;;;;;;31.70;11.80;;;;;;;7.46;50.89;103169.59;4954444;28;99267;-81
2021/03/02 07:24:09;;;;;;;25.60;12.23;;;;;;;7.37;50.88;103175.59;4951774;28;96880;-81
2021/03/02 07:26:37;;;;;;;32.72;11.38;;;;;;;7.34;50.77;103180.81;4948450;28;97311;-81
2021/03/02 07:29:04;;;;;;;20.65;10.95;;;;;;;7.68;50.25;103163.78;4945777;28;98902;-81
2021/03/02 07:31:31;;;;;;;32.05;10.73;;;;;;;7.77;50.19;103165.66;4944844;28;97734;-83
2021/03/02 07:34:03;;;;;;;22.48;11.30;;;;;;;7.67;50.67;103174.31;4957819;28;98808;-83
2021/03/02 07:36:35;;;;;;;22.38;10.55;;;;;;;7.63;50.68;103173.34;4941821;28;98504;-83
2021/03/02 07:39:17;;;;;;;25.05;10.63;;;;;;;7.68;50.26;103174.31;4957689;28;97801;-81
2021/03/02 07:41:44;;;;;;;23.00;11.20;;;;;;;7.84;50.01;103163.16;4954469;28;97759;-81
2021/03/02 07:44:10;;;;;;;31.27;13.00;;;;;;;8.03;49.47;103174.81;4954277;28;96859;-79
2021/03/02 07:46:44;;;;;;;;;;;;;;;7.61;50.88;103175.09;4951656;28;97879;-78
2021/03/02 07:49:35;;;;;;;27.50;11.48;;;;;;;7.83;50.94;103185.06;4947311;28;97611;-79
2021/03/02 07:52:22;;;;;;;28.08;11.68;;;;;;;7.74;50.97;103176.19;4944790;28;98900;-81
2021/03/02 07:54:49;;;;;;;25.70;12.83;;;;;;;8.17;49.74;103170.63;4957618;28;97321;-82
2021/03/02 07:57:26;;;;;;;35.53;12.75;;;;;;;8.59;48.95;103177.31;4945995;28;98306;-81
2021/03/02 08:00:25;;;;;;;26.65;12.23;;;;;;;8.73;48.44;103171.31;4959233;28;97790;-82
2021/03/02 08:03:25;;;;;;;24.05;11.60;;;;;;;8.89;48.12;103187.28;4951401;28;97512;-80
2021/03/02 08:05:53;;;;;;;39.72;15.40;;;;;;;7.40;51.60;103188.81;4950948;28;97601;-80
2021/03/02 08:08:35;;;;;;;40.08;15.27;;;;;;;7.08;52.79;103190.00;4946350;28;98386;-81
2021/03/02 08:11:23;;;;;;;52.67;15.85;;;;;;;7.46;51.70;103186.28;4945432;28;99866;-79
2021/03/02 08:13:49;;;;;;;50.97;17.95;;;;;;;7.83;51.05;103192.06;4937720;28;101677;-81
2021/03/02 08:16:15;;;;;;;44.58;14.57;;;;;;;8.18;49.90;103187.31;4945348;28;97157;-81
2021/03/02 08:18:41;;;;;;;;;;;;;;;7.89;50.11;103189.53;4967820;28;96941;-81
2021/03/02 08:21:11;;;;;;;38.40;14.77;;;;;;;8.28;49.63;103179.53;4966441;28;98331;-82
2021/03/02 08:23:48;;;;;;;44.67;15.55;;;;;;;8.33;49.32;103190.19;4960605;28;98723;-79
2021/03/02 08:26:36;;;;;;;37.20;15.80;;;;;;;7.81;50.89;103188.56;4964133;28;96911;-80
2021/03/02 08:29:04;;;;;;;38.42;16.52;;;;;;;8.39;49.75;103190.25;4956651;28;97044;-81
2021/03/02 08:31:30;;;;;;;36.53;16.08;;;;;;;6.94;53.09;103189.75;4961683;28;98798;-80
2021/03/02 08:33:59;;;;;;;39.33;16.08;;;;;;;7.36;52.91;103193.97;4954166;28;98971;-81
2021/03/02 08:36:27;;;;;;;35.72;16.13;;;;;;;8.41;49.45;103185.88;4951952;28;99240;-81
2021/03/02 08:38:53;;;;;;;42.28;17.70;;;;;;;7.68;51.93;103183.97;4956357;28;97055;-81
2021/03/02 08:41:33;;;;;;;43.35;17.45;;;;;;;8.94;48.44;103188.22;4952313;28;97635;-80
2021/03/02 08:43:59;;;;;;;39.55;17.52;;;;;;;8.93;48.88;103189.97;4950174;28;99012;-81
2021/03/02 08:46:27;;;;;;;47.42;19.08;;;;;;;9.77;46.75;103188.94;4948747;28;96856;-80
2021/03/02 08:48:54;;;;;;;47.90;18.30;;;;;;;10.10;45.87;103190.88;4948936;28;97789;-80
2021/03/02 08:51:21;;;;;;;47.05;16.10;;;;;;;10.08;45.79;103182.06;4943529;28;101569;-80
2021/03/02 08:53:49;;;;;;;43.60;17.83;;;;;;;10.39;45.06;103181.34;4957188;28;97165;-80
2021/03/02 08:56:20;;;;;;;39.50;17.58;;;;;;;10.99;43.57;103185.03;4953384;28;96894;-80
2021/03/02 08:58:48;;;;;;;37.95;16.70;;;;;;;11.12;43.43;103186.81;4949175;28;97298;-80
2021/03/02 09:01:15;;;;;;;42.47;17.23;;;;;;;11.01;43.92;103177.09;4956870;28;98971;-81
2021/03/02 09:03:44;;;;;;;38.28;17.00;;;;;;;11.36;43.15;103183.25;4946133;28;99259;-79
2021/03/02 09:06:16;;;;;;;40.85;17.17;;;;;;;11.08;43.53;103192.09;4944630;28;98557;-79
2021/03/02 09:08:47;;;;;;;30.83;15.60;;;;;;;11.41;42.96;103197.41;4946994;28;96920;-80
2021/03/02 09:11:15;;;;;;;42.75;17.55;;;;;;;11.46;42.58;103195.63;4945432;28;97580;-79
2021/03/02 09:13:41;;;;;;;46.97;18.90;;;;;;;11.49;42.74;103200.91;4951082;28;99189;-80
2021/03/02 09:16:29;;;;;;;52.10;18.88;;;;;;;11.03;43.89;103197.34;4954188;28;97572;-79
2021/03/02 09:18:59;;;;;;;60.78;22.02;;;;;;;9.97;46.21;103200.50;4947764;28;97507;-79
2021/03/02 09:21:25;;;;;;;64.85;24.73;;;;;;;9.34;48.44;103194.72;4944543;28;99385;-79
2021/03/02 09:23:52;;;;;;;55.13;22.38;;;;;;;9.87;47.08;103192.50;4949881;28;99196;-80
2021/03/02 09:26:20;;;;;;;70.13;24.48;;;;;;;9.58;47.60;103200.22;4949244;28;96811;-80
2021/03/02 09:28:52;;;;;;;65.90;23.15;;;;;;;10.58;45.62;103203.44;4956138;28;97377;-79
2021/03/02 09:31:18;;;;;;;60.95;23.02;;;;;;;11.14;44.09;103200.03;4954555;28;99316;-81
2021/03/02 09:33:45;;;;;;;53.75;20.77;;;;;;;11.53;43.17;103197.41;4954920;28;99077;-79
2021/03/02 09:36:11;;;;;;;50.38;20.63;;;;;;;11.38;43.16;103194.75;4948889;28;97643;-79
2021/03/02 09:38:37;;;;;;;;;;;;;;;11.60;42.95;103195.63;4950411;28;97044;-79
2021/03/02 09:41:03;;;;;;;47.50;20.40;;;;;;;11.70;42.42;103193.84;4956983;28;99342;-79
2021/03/02 09:43:34;;;;;;;;;;;;;;;11.73;42.45;103196.50;4952158;28;98971;-78
2021/03/02 09:46:00;;;;;;;44.92;20.58;;;;;;;11.22;43.01;103200.94;4956933;28;96812;-79
2021/03/02 09:48:26;;;;;;;;;;;;;;;11.02;43.90;103200.03;4951428;28;96937;-78
2021/03/02 09:50:52;;;;;;;51.03;19.85;;;;;;;10.04;46.63;103185.56;4952652;28;98756;-80
2021/03/02 09:53:18;;;;;;;;;;;;;;;11.53;43.74;103185.94;4952155;28;98011;-79
2021/03/02 09:55:47;;;;;;;45.90;19.27;;;;;;;11.69;43.00;103190.31;4958965;28;96816;-80
2021/03/02 09:58:16;;;;;;;39.97;19.08;;;;;;;11.80;42.40;103183.28;4960421;28;96815;-79
2021/03/02 10:00:50;;;;;;;42.50;19.27;;;;;;;11.99;42.05;103189.41;4947545;28;98915;-80
2021/03/02 10:03:17;;;;;;;41.35;18.75;;;;;;;11.76;42.33;103180.63;4951590;28;101422;-81
2021/03/02 10:05:45;;;;;;;37.85;17.35;;;;;;;12.08;42.16;103181.41;4955839;28;96757;-79
2021/03/02 10:08:21;;;;;;;36.35;18.23;;;;;;;12.13;42.05;103179.66;4955093;28;97002;-79
2021/03/02 10:10:47;;;;;;;36.63;17.15;;;;;;;12.29;41.38;103183.09;4963373;28;101375;-78
2021/03/02 10:13:22;;;;;;;32.30;16.65;;;;;;;11.97;42.30;103180.56;4966423;28;99140;-80
2021/03/02 10:15:49;;;;;;;32.40;16.67;;;;;;;12.47;41.36;103176.88;4975279;28;97125;-80
2021/03/02 10:18:25;;;;;;;36.25;18.02;;;;;;;12.31;41.38;103182.22;4976693;28;96698;-80
2021/03/02 10:21:05;;;;;;;38.08;17.25;;;;;;;12.26;41.66;103184.03;4969740;28;99253;-80
2021/03/02 10:23:31;;;;;;;35.10;18.08;;;;;;;12.21;41.74;103184.91;4959094;28;99944;-80
2021/03/02 10:26:00;;;;;;;28.83;17.35;;;;;;;12.14;41.65;103184.03;4959337;28;97074;-80
2021/03/02 10:28:30;;;;;;;36.28;17.75;;;;;;;12.35;41.71;103186.63;4962305;28;97203;-81
2021/03/02 10:30:57;;;;;;;35.50;17.60;;;;;;;12.42;41.48;103175.97;4961490;28;101573;-79
2021/03/02 10:33:24;;;;;;;48.03;19.23;;;;;;;11.17;44.16;103186.78;4951120;28;98942;-82
2021/03/02 10:35:50;;;;;;;33.05;17.63;;;;;;;11.65;43.51;103180.59;4965387;28;97605;-80
2021/03/02 10:38:15;;;;;;;;;;;;;;;12.17;42.53;103178.75;4961640;28;97383;-78
2021/03/02 10:40:42;;;;;;;41.85;17.70;;;;;;;12.47;41.76;103176.88;4966024;28;98797;-79
2021/03/02 10:43:07;;;;;;;37.58;19.05;;;;;;;11.87;43.01;103184.16;4956631;28;97743;-78
2021/03/02 10:45:33;;;;;;;35.35;19.10;;;;;;;11.58;43.55;103185.03;4966272;28;96939;-79
2021/03/02 10:48:00;;;;;;;;;;;;;;;12.26;42.52;103188.44;4963886;28;97071;-79
2021/03/02 10:50:26;;;;;;;35.40;18.75;;;;;;;12.41;41.91;103185.69;4958893;28;97348;-80
2021/03/02 10:52:54;;;;;;;46.60;18.90;;;;;;;12.58;41.81;103188.28;4959687;28;98200;-79
2021/03/02 10:55:20;;;;;;;40.03;19.75;;;;;;;12.38;42.28;103183.09;4954420;28;96897;-80
2021/03/02 10:57:46;;;;;;;46.83;20.63;;;;;;;12.84;41.24;103181.06;4957369;28;97272;-80
2021/03/02 11:00:13;;;;;;;39.22;19.25;;;;;;;13.01;40.97;103175.63;4964124;28;99440;-79
2021/03/02 11:02:39;;;;;;;59.40;25.90;;;;;;;12.08;42.93;103180.56;4959900;28;98764;-81
2021/03/02 11:05:08;;;;;;;50.10;22.90;;;;;;;12.73;41.90;103174.94;4955459;28;96600;-81
2021/03/02 11:07:34;;;;;;;54.03;20.60;;;;;;;12.66;41.98;103178.53;4959900;28;97234;-80
2021/03/02 11:10:04;;;;;;;43.17;21.05;;;;;;;12.90;41.55;103180.13;4968596;28;99341;-79
2021/03/02 11:12:30;;;;;;;41.35;20.70;;;;;;;12.95;41.34;103171.25;4965508;28;98284;-79
2021/03/02 11:14:56;;;;;;;45.20;22.55;;;;;;;13.13;40.84;103172.91;4961369;28;97275;-78
2021/03/02 11:17:22;;;;;;;66.00;25.70;;;;;;;13.33;40.79;103175.41;4956233;28;96803;-77
2021/03/02 11:19:48;;;;;;;;;;;;;;;13.14;41.05;103167.59;4959551;28;99382;-79
2021/03/02 11:22:15;;;;;;;65.80;27.73;;;;;;;12.40;42.64;103169.81;4956879;28;100854;-78
2021/03/02 11:24:41;;;;;;;62.33;25.52;;;;;;;11.80;44.24;103166.50;4967775;28;97304;-80
2021/03/02 11:27:07;;;;;;;59.65;27.88;;;;;;;12.43;43.25;103159.19;4968948;28;96741;-79
2021/03/02 11:29:35;;;;;;;65.40;26.00;;;;;;;12.47;42.76;103161.81;4965424;28;97807;-78
2021/03/02 11:32:02;;;;;;;60.45;25.67;;;;;;;11.64;44.27;103157.66;4961826;28;97692;-79
2021/03/02 11:34:28;;;;;;;55.58;24.90;;;;;;;11.85;44.21;103155.00;4959890;28;96714;-80
2021/03/02 11:36:53;;;;;;;;;;;;;;;12.12;44.01;103154.03;4969285;28;96829;-78